createdAt,value
2022-09-26T00:00:55.155Z,6.55
2022-09-26T00:06:18.006Z,6.25
2022-09-26T00:11:40.521Z,5.78
2022-09-26T00:17:02.270Z,5.90
2022-09-26T00:22:23.991Z,5.82
2022-09-26T00:27:45.720Z,5.68
2022-09-26T00:33:07.665Z,5.60
2022-09-26T00:38:29.494Z,5.78
2022-09-26T00:43:54.129Z,6.45
2022-09-26T00:49:25.279Z,6.57
2022-09-26T00:54:51.610Z,6.68
2022-09-26T01:00:14.984Z,7.13
2022-09-26T01:05:37.799Z,7.30
2022-09-26T01:11:00.454Z,7.80
2022-09-26T01:16:22.216Z,6.60
2022-09-26T01:22:13.012Z,6.90
2022-09-26T01:28:12.171Z,6.22
2022-09-26T01:33:46.914Z,6.22
2022-09-26T01:39:18.119Z,6.80
2022-09-26T01:44:52.921Z,6.28
2022-09-26T01:50:34.756Z,6.85
2022-09-26T01:56:03.125Z,6.65
2022-09-26T02:01:29.442Z,7.22
2022-09-26T02:06:57.252Z,6.47
2022-09-26T02:12:27.685Z,6.30
2022-09-26T02:17:55.284Z,7.07
2022-09-26T02:23:17.231Z,6.95
2022-09-26T02:28:38.941Z,6.25
2022-09-26T02:34:01.752Z,6.45
2022-09-26T02:39:24.660Z,6.70
2022-09-26T02:45:14.546Z,6.57
2022-09-26T02:51:01.827Z,5.82
2022-09-26T02:56:47.656Z,5.88
2022-09-26T03:02:17.224Z,5.95
2022-09-26T03:07:47.103Z,6.00
2022-09-26T03:13:13.235Z,5.65
2022-09-26T03:19:04.363Z,6.05
2022-09-26T03:24:26.810Z,6.05
2022-09-26T03:29:48.569Z,5.45
2022-09-26T03:35:10.567Z,5.43
2022-09-26T03:40:32.297Z,5.57
2022-09-26T03:45:54.895Z,5.00
2022-09-26T03:51:17.170Z,4.80
2022-09-26T03:56:39.019Z,4.60
2022-09-26T04:02:00.728Z,4.45
2022-09-26T04:07:22.558Z,4.47
2022-09-26T04:12:44.549Z,4.07
2022-09-26T04:18:06.226Z,4.68
2022-09-26T04:23:28.836Z,4.40
2022-09-26T04:28:52.169Z,3.65
2022-09-26T04:34:14.862Z,4.07
2022-09-26T04:39:36.915Z,4.07
2022-09-26T04:44:58.558Z,3.75
2022-09-26T04:50:20.304Z,3.28
2022-09-26T04:55:46.584Z,3.28
2022-09-26T05:01:11.680Z,3.45
2022-09-26T05:06:33.595Z,3.45
2022-09-26T05:11:55.279Z,3.80
2022-09-26T05:17:16.957Z,3.33
2022-09-26T05:22:38.629Z,3.03
2022-09-26T05:28:01.078Z,3.50
2022-09-26T05:33:22.776Z,3.88
2022-09-26T05:38:45.276Z,3.38
2022-09-26T05:44:06.943Z,3.75
2022-09-26T05:49:28.600Z,3.67
2022-09-26T05:54:50.273Z,3.90
2022-09-26T06:00:12.505Z,4.05
2022-09-26T06:05:34.623Z,4.05
2022-09-26T06:11:01.008Z,4.22
2022-09-26T06:16:23.093Z,3.63
2022-09-26T06:21:44.870Z,3.85
2022-09-26T06:27:06.634Z,3.50
2022-09-26T06:32:29.190Z,3.72
2022-09-26T06:37:51.628Z,3.53
2022-09-26T06:43:13.315Z,3.22
2022-09-26T06:48:35.934Z,3.47
2022-09-26T06:53:57.720Z,3.20
2022-09-26T06:59:19.453Z,3.63
2022-09-26T07:04:41.149Z,3.20
2022-09-26T07:10:02.910Z,3.45
2022-09-26T07:15:27.423Z,3.03
2022-09-26T07:20:51.221Z,3.65
2022-09-26T07:26:16.205Z,3.00
2022-09-26T07:31:38.407Z,2.83
2022-09-26T07:37:00.229Z,2.42
2022-09-26T07:42:22.051Z,2.60
2022-09-26T07:48:02.174Z,2.28
2022-09-26T07:53:26.508Z,2.80
2022-09-26T07:58:48.351Z,2.83
2022-09-26T08:04:11.865Z,2.20
2022-09-26T08:09:34.036Z,2.47
2022-09-26T08:14:55.960Z,2.33
2022-09-26T08:20:17.753Z,2.67
2022-09-26T08:25:39.756Z,3.03
2022-09-26T08:31:02.893Z,3.03
2022-09-26T08:36:24.713Z,2.17
2022-09-26T08:42:01.295Z,2.70
2022-09-26T08:47:49.282Z,2.60
2022-09-26T08:53:16.407Z,2.40
2022-09-26T08:58:42.816Z,2.67
2022-09-26T09:04:16.359Z,2.35
2022-09-26T09:09:38.711Z,2.42
2022-09-26T09:15:25.162Z,1.98
2022-09-26T09:21:13.953Z,1.98
2022-09-26T09:32:45.271Z,1.90
2022-09-26T09:38:12.468Z,1.92
2022-09-26T09:43:45.894Z,1.73
2022-09-26T09:49:10.374Z,2.00
2022-09-26T09:54:46.760Z,2.00
2022-09-26T10:00:15.601Z,1.67
2022-09-26T10:05:46.546Z,1.60
2022-09-26T10:11:14.310Z,1.70
2022-09-26T10:16:36.046Z,1.75
2022-09-26T10:21:58.457Z,1.50
2022-09-26T10:27:36.913Z,1.70
2022-09-26T10:33:00.978Z,1.70
2022-09-26T10:38:27.193Z,1.65
2022-09-26T10:43:54.638Z,1.52
2022-09-26T10:49:18.838Z,1.25
2022-09-26T10:55:03.718Z,1.42
2022-09-26T11:00:37.538Z,1.63
2022-09-26T11:05:59.960Z,1.27
2022-09-26T11:11:22.480Z,1.75
2022-09-26T11:16:44.074Z,1.27
2022-09-26T11:22:19.997Z,1.10
2022-09-26T11:28:08.207Z,1.40
2022-09-26T11:33:30.206Z,1.10
2022-09-26T11:39:18.125Z,1.38
2022-09-26T11:44:42.506Z,1.67
2022-09-26T11:50:25.578Z,1.40
2022-09-26T11:56:06.081Z,1.20
2022-09-26T12:01:42.736Z,1.25
2022-09-26T12:07:19.483Z,1.10
2022-09-26T12:12:49.566Z,0.98
2022-09-26T12:18:26.242Z,0.88
2022-09-26T12:23:57.154Z,1.48
2022-09-26T12:29:44.756Z,1.50
2022-09-26T12:35:21.085Z,1.48
2022-09-26T12:40:42.873Z,2.13
2022-09-26T12:46:19.069Z,1.77
2022-09-26T12:51:51.943Z,1.15
2022-09-26T12:57:38.494Z,1.08
2022-09-26T13:03:09.660Z,1.10
2022-09-26T13:09:00.753Z,1.05
2022-09-26T13:14:46.630Z,1.08
2022-09-26T13:20:24.135Z,0.85
2022-09-26T13:26:18.047Z,0.60
2022-09-26T13:31:45.564Z,0.60
2022-09-26T13:37:31.783Z,0.55
2022-09-26T13:43:20.341Z,0.50
2022-09-26T13:49:01.017Z,0.80
2022-09-26T13:54:48.502Z,0.70
2022-09-26T14:00:38.913Z,0.70
2022-09-26T14:06:15.563Z,0.70
2022-09-26T14:11:45.048Z,0.90
2022-09-26T14:17:38.522Z,0.82
2022-09-26T14:23:01.694Z,0.85
2022-09-26T14:28:35.362Z,0.85
2022-09-26T14:34:23.399Z,0.80
2022-09-26T14:39:46.279Z,0.90
2022-09-26T14:45:21.168Z,0.93
2022-09-26T14:50:56.199Z,1.08
2022-09-26T14:56:38.340Z,0.90
2022-09-26T15:02:40.366Z,0.90
2022-09-26T15:08:02.429Z,1.02
2022-09-26T15:13:31.685Z,1.00
2022-09-26T15:19:02.935Z,1.20
2022-09-26T15:24:27.175Z,1.42
2022-09-26T15:29:51.675Z,1.25
2022-09-26T15:35:14.098Z,0.82
2022-09-26T15:40:35.993Z,0.77
2022-09-26T15:45:59.390Z,0.77
2022-09-26T15:51:26.547Z,0.75
2022-09-26T15:56:49.513Z,1.00
2022-09-26T16:02:23.391Z,0.68
2022-09-26T16:07:48.952Z,1.10
2022-09-26T16:13:25.167Z,1.17
2022-09-26T16:19:01.399Z,1.20
2022-09-26T16:24:34.222Z,1.40
2022-09-26T16:30:02.484Z,1.10
2022-09-26T16:35:29.470Z,1.20
2022-09-26T16:40:54.066Z,1.48
2022-09-26T16:46:18.055Z,1.60
2022-09-26T16:51:40.847Z,1.17
2022-09-26T16:57:05.017Z,1.20
2022-09-26T17:02:26.715Z,1.17
2022-09-26T17:07:49.627Z,1.65
2022-09-26T17:13:21.610Z,1.60
2022-09-26T17:18:44.688Z,1.70
2022-09-26T17:24:13.735Z,1.65
2022-09-26T17:29:39.589Z,1.92
2022-09-26T17:35:08.630Z,1.70
2022-09-26T17:40:32.454Z,1.70
2022-09-26T17:45:54.907Z,1.80
2022-09-26T17:51:16.607Z,1.52
2022-09-26T17:56:38.283Z,1.90
2022-09-26T18:02:03.630Z,1.40
2022-09-26T18:07:34.100Z,1.90
2022-09-26T18:13:01.065Z,1.65
2022-09-26T18:18:24.347Z,1.58
2022-09-26T18:23:51.636Z,1.40
2022-09-26T18:29:17.553Z,1.42
2022-09-26T18:34:39.243Z,1.70
2022-09-26T18:40:04.146Z,1.70
2022-09-26T18:45:35.765Z,1.10
2022-09-26T18:50:57.731Z,1.52
2022-09-26T18:56:38.339Z,2.00
2022-09-26T19:02:01.849Z,2.33
2022-09-26T19:07:24.438Z,1.80
2022-09-26T19:12:46.744Z,1.50
2022-09-26T19:18:09.808Z,1.20
2022-09-26T19:23:35.204Z,1.20
2022-09-26T19:28:59.178Z,1.73
2022-09-26T19:34:21.836Z,1.85
2022-09-26T19:39:43.626Z,1.83
2022-09-26T19:45:05.866Z,2.80
2022-09-26T19:50:28.505Z,2.20
2022-09-26T19:55:50.627Z,2.00
2022-09-26T20:01:18.064Z,2.05
2022-09-26T20:06:39.902Z,1.90
2022-09-26T20:12:01.896Z,1.77
2022-09-26T20:17:26.814Z,1.15
2022-09-26T20:22:50.951Z,1.30
2022-09-26T20:28:14.868Z,1.40
2022-09-26T20:33:37.236Z,1.20
2022-09-26T20:39:03.067Z,1.48
2022-09-26T20:44:33.497Z,1.60
2022-09-26T20:49:58.706Z,1.08
2022-09-26T20:55:20.503Z,1.42
2022-09-26T21:00:43.961Z,1.23
2022-09-26T21:06:12.767Z,1.25
2022-09-26T21:11:34.478Z,1.30
2022-09-26T21:16:56.396Z,1.02
2022-09-26T21:22:20.663Z,0.90
2022-09-26T21:27:42.326Z,0.60
2022-09-26T21:33:04.002Z,1.05
2022-09-26T21:38:26.332Z,0.70
2022-09-26T21:43:53.954Z,0.80
2022-09-26T21:49:15.666Z,0.55
2022-09-26T21:54:42.189Z,0.80
2022-09-26T22:00:08.601Z,1.20
2022-09-26T22:05:31.276Z,0.90
2022-09-26T22:10:53.843Z,1.00
2022-09-26T22:16:15.838Z,0.73
2022-09-26T22:21:37.677Z,0.80
2022-09-26T22:26:59.445Z,0.70
2022-09-26T22:32:21.403Z,1.05
2022-09-26T22:37:43.215Z,0.70
2022-09-26T22:43:04.947Z,1.20
2022-09-26T22:48:30.113Z,1.48
2022-09-26T22:53:51.859Z,1.85
2022-09-26T22:59:13.779Z,2.20
2022-09-26T23:04:47.292Z,1.60
2022-09-26T23:10:10.371Z,1.67
2022-09-26T23:15:32.385Z,1.80
2022-09-26T23:20:54.069Z,1.75
2022-09-26T23:26:27.352Z,1.33
2022-09-26T23:31:50.779Z,1.10
2022-09-26T23:37:12.559Z,1.02
2022-09-26T23:42:34.236Z,0.85
2022-09-26T23:47:55.900Z,1.05
2022-09-26T23:53:17.772Z,1.05
2022-09-26T23:58:40.370Z,0.90
